Time;durP1;ratioP1;P1;durP2;ratioP2;P2;SDS_P1;SDS_P2;PMS_P1;PMS_P2;Temp;Humidity;BMP_temperature;BMP_pressure;BME280_temperature;BME280_humidity;BME280_pressure;Samples;Min_cycle;Max_cycle;Signal;HPM_P1;HPM_P2
2022/11/16 00:01:56;;;;;;;8.30;7.50;;;11.90;99.90;;;;;;5074209;28;20433;-78
2022/11/16 00:04:24;;;;;;;8.90;8.00;;;11.90;99.90;;;;;;5073236;28;20503;-78
2022/11/16 00:06:52;;;;;;;8.20;7.40;;;11.90;99.90;;;;;;5073962;28;20440;-78
2022/11/16 00:09:25;;;;;;;9.07;7.20;;;11.90;99.90;;;;;;5074373;28;20471;-78
2022/11/16 00:11:57;;;;;;;7.50;6.87;;;11.90;99.90;;;;;;5074286;28;20530;-78
2022/11/16 00:14:27;;;;;;;6.63;5.93;;;11.90;99.90;;;;;;5073954;28;20925;-78
2022/11/16 00:16:56;;;;;;;8.37;7.30;;;11.80;99.90;;;;;;5073903;28;20449;-78
2022/11/16 00:19:25;;;;;;;7.13;6.53;;;11.90;99.90;;;;;;5072749;28;20445;-78
2022/11/16 00:21:54;;;;;;;8.20;7.40;;;11.90;99.90;;;;;;5072335;28;20460;-78
2022/11/16 00:24:23;;;;;;;7.67;6.90;;;11.90;99.90;;;;;;5073720;28;21009;-78
2022/11/16 00:26:55;;;;;;;7.37;6.67;;;11.90;99.90;;;;;;5074111;28;20437;-78
2022/11/16 00:29:24;;;;;;;7.90;7.10;;;11.90;99.90;;;;;;5074033;28;20430;-78
2022/11/16 00:31:54;;;;;;;8.60;7.53;;;11.90;99.90;;;;;;5072350;28;20560;-78
2022/11/16 00:34:23;;;;;;;8.17;7.47;;;11.90;99.90;;;;;;5072546;28;20847;-78
2022/11/16 00:36:52;;;;;;;7.77;7.07;;;11.90;99.90;;;;;;5072416;28;20455;-77
2022/11/16 00:39:20;;;;;;;11.93;8.00;;;11.90;99.90;;;;;;5072344;28;20441;-78
2022/11/16 00:41:49;;;;;;;7.33;6.73;;;11.90;99.90;;;;;;5073885;28;20434;-78
2022/11/16 00:44:19;;;;;;;8.43;7.63;;;11.90;99.90;;;;;;5073826;28;20441;-78
2022/11/16 00:46:47;;;;;;;7.47;6.77;;;11.90;99.90;;;;;;5072361;28;20507;-77
2022/11/16 00:49:15;;;;;;;8.20;7.40;;;11.90;99.90;;;;;;5072240;28;20823;-78
2022/11/16 00:51:43;;;;;;;8.17;7.37;;;11.90;99.90;;;;;;5073479;28;20461;-78
2022/11/16 00:54:11;;;;;;;7.27;6.57;;;11.90;99.90;;;;;;5072423;28;20469;-78
2022/11/16 00:56:40;;;;;;;8.10;7.30;;;11.90;99.90;;;;;;5072406;28;20457;-78
2022/11/16 00:59:08;;;;;;;7.67;6.97;;;11.90;99.90;;;;;;5072287;28;20498;-78
2022/11/16 01:01:38;;;;;;;8.57;7.77;;;11.80;99.90;;;;;;5073889;28;20529;-77
2022/11/16 01:04:06;;;;;;;8.27;7.47;;;11.80;99.90;;;;;;5072150;28;20675;-78
2022/11/16 01:06:36;;;;;;;7.87;7.07;;;11.80;99.90;;;;;;5072464;28;20453;-77
2022/11/16 01:09:04;;;;;;;8.10;7.30;;;11.80;99.90;;;;;;5074771;28;20461;-78
2022/11/16 01:14:18;;;;;;;8.30;7.10;;;11.80;99.90;;;;;;5075964;28;20469;-78
2022/11/16 01:16:49;;;;;;;7.90;7.20;;;11.80;99.90;;;;;;5076876;28;20445;-78
2022/11/16 01:19:17;;;;;;;8.00;7.20;;;11.80;99.90;;;;;;5077933;28;20448;-78
2022/11/16 01:21:45;;;;;;;8.03;7.23;;;11.80;99.90;;;;;;5075863;28;20476;-77
2022/11/16 01:24:14;;;;;;;8.90;8.10;;;11.80;99.90;;;;;;5076053;28;20518;-77
2022/11/16 01:26:42;;;;;;;8.53;7.60;;;11.80;99.90;;;;;;5075226;28;20457;-77
2022/11/16 01:29:10;;;;;;;8.30;7.50;;;11.80;99.90;;;;;;5074284;28;20536;-77
2022/11/16 01:31:43;;;;;;;8.70;7.90;;;11.70;99.90;;;;;;5074923;28;20453;-78
2022/11/16 01:34:12;;;;;;;7.23;6.53;;;11.70;99.90;;;;;;5076222;28;20477;-77
2022/11/16 01:36:40;;;;;;;8.53;7.63;;;11.70;99.90;;;;;;5079951;28;20445;-77
2022/11/16 01:39:11;;;;;;;9.17;8.17;;;11.80;99.90;;;;;;5090961;28;20475;-78
2022/11/16 01:41:47;;;;;;;9.00;8.10;;;11.70;99.90;;;;;;5082943;28;20448;-78
2022/11/16 01:44:53;;;;;;;8.20;7.40;;;11.70;99.90;;;;;;5081792;28;20473;-78
2022/11/16 01:47:21;;;;;;;9.07;8.27;;;11.70;99.90;;;;;;5080070;28;20463;-78
2022/11/16 01:49:53;;;;;;;9.90;7.93;;;11.70;99.90;;;;;;5077667;28;20452;-78
2022/11/16 01:52:31;;;;;;;9.53;8.03;;;11.70;99.90;;;;;;5076012;28;20841;-78
2022/11/16 01:55:01;;;;;;;9.40;8.47;;;11.70;99.90;;;;;;5076223;28;20433;-78
2022/11/16 01:57:42;;;;;;;7.90;7.20;;;11.70;99.90;;;;;;5076028;28;20471;-78
2022/11/16 02:00:13;;;;;;;8.77;7.87;;;11.70;99.90;;;;;;5075685;28;20504;-78
2022/11/16 02:02:45;;;;;;;8.47;7.60;;;11.60;99.90;;;;;;5075685;28;20981;-78
2022/11/16 02:05:39;;;;;;;9.10;7.73;;;11.60;99.90;;;;;;5075488;28;20438;-78
2022/11/16 02:11:32;;;;;;;9.40;8.50;;;11.60;99.90;;;;;;5075110;28;20464;-78
2022/11/16 02:14:15;;;;;;;8.67;7.80;;;11.60;99.90;;;;;;5075029;28;21058;-78
2022/11/16 02:16:50;;;;;;;10.07;9.00;;;11.60;99.90;;;;;;5074918;28;20437;-78
2022/11/16 02:19:48;;;;;;;9.17;7.90;;;11.50;99.90;;;;;;5074906;28;20445;-78
2022/11/16 02:22:27;;;;;;;9.53;8.63;;;11.50;99.90;;;;;;5076221;28;20473;-78
2022/11/16 02:25:03;;;;;;;8.43;7.70;;;11.50;99.90;;;;;;5074883;28;20779;-78
2022/11/16 02:27:54;;;;;;;8.43;7.63;;;11.50;99.90;;;;;;5074808;28;20448;-78
2022/11/16 02:30:24;;;;;;;9.70;8.70;;;11.50;99.90;;;;;;5074990;28;20452;-78
2022/11/16 02:33:00;;;;;;;9.30;8.30;;;11.50;99.90;;;;;;5075186;28;20539;-78
2022/11/16 02:35:32;;;;;;;10.07;9.07;;;11.50;99.90;;;;;;5074861;28;20449;-78
2022/11/16 02:38:10;;;;;;;8.40;7.60;;;11.50;99.90;;;;;;5075474;28;20524;-78
2022/11/16 02:40:42;;;;;;;10.30;9.20;;;11.50;99.90;;;;;;5074542;28;20433;-77
2022/11/16 02:43:15;;;;;;;9.63;8.73;;;11.50;99.90;;;;;;5074479;28;20891;-77
2022/11/16 02:45:49;;;;;;;10.57;9.57;;;11.40;99.90;;;;;;5074440;28;20444;-79
2022/11/16 02:48:22;;;;;;;9.23;8.33;;;11.40;99.90;;;;;;5075123;28;20911;-78
2022/11/16 02:50:53;;;;;;;9.37;8.47;;;11.40;99.90;;;;;;5073917;28;20869;-77
2022/11/16 02:53:22;;;;;;;10.37;9.40;;;11.40;99.90;;;;;;5074484;28;20890;-78
2022/11/16 02:55:51;;;;;;;9.47;8.60;;;11.40;99.90;;;;;;5074468;28;20449;-77
2022/11/16 02:58:22;;;;;;;9.80;8.77;;;11.40;99.90;;;;;;5074066;28;20437;-78
2022/11/16 03:00:59;;;;;;;10.30;8.40;;;11.40;99.90;;;;;;5074158;28;20503;-78
2022/11/16 03:03:34;;;;;;;10.47;9.40;;;11.40;99.90;;;;;;5074072;28;20462;-78
2022/11/16 03:06:07;;;;;;;10.10;9.10;;;11.40;99.90;;;;;;5075622;28;20449;-78
2022/11/16 03:08:41;;;;;;;9.70;8.80;;;11.40;99.90;;;;;;5073991;28;20434;-78
2022/11/16 03:14:02;;;;;;;9.10;8.27;;;11.30;99.90;;;;;;5074409;28;20914;-78
2022/11/16 03:16:38;;;;;;;10.20;9.20;;;11.30;99.90;;;;;;5073874;28;20441;-78
2022/11/16 03:19:10;;;;;;;9.37;8.43;;;11.30;99.90;;;;;;5073790;28;20532;-78
2022/11/16 03:21:44;;;;;;;10.57;9.57;;;11.30;99.90;;;;;;5073846;28;20461;-78
2022/11/16 03:24:13;;;;;;;10.30;9.30;;;11.30;99.90;;;;;;5073984;28;20479;-78
2022/11/16 03:26:55;;;;;;;10.03;9.13;;;11.20;99.90;;;;;;5073678;28;20989;-77
2022/11/16 03:29:29;;;;;;;9.97;8.70;;;11.20;99.90;;;;;;5073638;28;20441;-76
2022/11/16 03:32:08;;;;;;;11.20;10.10;;;11.20;99.90;;;;;;5073319;28;20485;-75
2022/11/16 03:34:41;;;;;;;10.73;9.83;;;11.20;99.90;;;;;;5073421;28;20484;-76
2022/11/16 03:37:11;;;;;;;12.10;10.83;;;11.20;99.90;;;;;;5073564;28;20437;-75
2022/11/16 03:39:40;;;;;;;10.90;9.90;;;11.10;99.90;;;;;;5073519;28;20449;-75
2022/11/16 03:42:13;;;;;;;10.83;9.73;;;11.20;99.90;;;;;;5073088;28;21056;-76
2022/11/16 03:44:45;;;;;;;11.67;10.57;;;11.10;99.90;;;;;;5073662;28;20433;-76
2022/11/16 03:47:15;;;;;;;11.17;10.13;;;11.10;99.90;;;;;;5073082;28;20442;-75
2022/11/16 03:49:47;;;;;;;12.20;11.10;;;11.10;99.90;;;;;;5074236;28;20468;-75
2022/11/16 03:52:18;;;;;;;11.90;10.70;;;11.00;99.90;;;;;;5072793;28;20897;-75
2022/11/16 03:54:49;;;;;;;13.10;11.83;;;11.00;99.90;;;;;;5073097;28;20962;-76
2022/11/16 03:57:17;;;;;;;11.67;10.60;;;11.00;99.90;;;;;;5072996;28;20445;-76
2022/11/16 03:59:52;;;;;;;12.77;11.63;;;11.00;99.90;;;;;;5072509;28;20429;-76
2022/11/16 04:02:21;;;;;;;12.47;11.27;;;11.00;99.90;;;;;;5073912;28;20466;-76
2022/11/16 04:24:28;;;;;;;13.77;12.57;;;10.80;99.90;;;;;;5073435;28;20453;-76
2022/11/16 04:29:47;;;;;;;15.47;13.97;;;10.80;99.90;;;;;;5074775;28;20552;-76
2022/11/16 04:37:49;;;;;;;14.37;13.00;;;10.80;99.90;;;;;;5072785;28;20449;-76
2022/11/16 04:40:28;;;;;;;15.70;14.20;;;10.70;99.90;;;;;;5072832;28;20500;-76
2022/11/16 04:42:58;;;;;;;15.17;13.70;;;10.70;99.90;;;;;;5072872;28;20501;-76
2022/11/16 04:48:20;;;;;;;15.33;13.83;;;10.60;99.90;;;;;;5072517;28;20443;-76
2022/11/16 04:50:53;;;;;;;15.83;14.33;;;10.70;99.90;;;;;;5072324;28;20438;-76
2022/11/16 04:53:25;;;;;;;15.07;13.83;;;10.60;99.90;;;;;;5072577;28;20485;-76
2022/11/16 04:56:04;;;;;;;16.33;14.83;;;10.60;99.90;;;;;;5072015;28;20441;-76
2022/11/16 04:58:33;;;;;;;16.33;14.77;;;10.60;99.90;;;;;;5072221;28;20453;-76
2022/11/16 05:01:02;;;;;;;16.13;14.53;;;10.60;99.90;;;;;;5071972;28;20437;-76
2022/11/16 05:03:31;;;;;;;17.57;15.97;;;10.60;99.90;;;;;;5071900;28;20496;-76
2022/11/16 05:06:01;;;;;;;17.67;16.07;;;10.60;99.90;;;;;;5071900;28;20448;-76
2022/11/16 05:08:30;;;;;;;16.70;15.10;;;10.50;99.90;;;;;;5071867;28;20455;-76
2022/11/16 05:10:59;;;;;;;18.47;16.67;;;10.50;99.90;;;;;;5072128;28;20460;-76
2022/11/16 05:13:28;;;;;;;18.13;16.23;;;10.50;99.90;;;;;;5075454;28;20473;-76
2022/11/16 05:15:57;;;;;;;17.23;15.60;;;10.50;99.90;;;;;;5076844;28;20453;-76
2022/11/16 05:18:26;;;;;;;18.83;17.10;;;10.50;99.90;;;;;;5076324;28;21023;-75
2022/11/16 05:20:59;;;;;;;19.50;17.70;;;10.50;99.90;;;;;;5079678;28;20449;-76
2022/11/16 05:26:20;;;;;;;18.80;17.10;;;10.40;99.90;;;;;;5076606;28;20445;-76
2022/11/16 05:28:48;;;;;;;19.83;17.13;;;10.40;99.90;;;;;;5076016;28;20480;-75
2022/11/16 05:31:17;;;;;;;20.87;18.83;;;10.40;99.90;;;;;;5077179;28;20950;-76
2022/11/16 05:33:45;;;;;;;21.60;19.50;;;10.40;99.90;;;;;;5075913;28;20469;-76
2022/11/16 05:36:14;;;;;;;20.43;18.63;;;10.40;99.90;;;;;;5075818;28;20486;-76
2022/11/16 05:38:44;;;;;;;21.40;19.30;;;10.30;99.90;;;;;;5075843;28;20501;-76
2022/11/16 05:41:12;;;;;;;20.77;18.77;;;10.30;99.90;;;;;;5075512;28;20476;-76
2022/11/16 05:43:40;;;;;;;20.80;18.70;;;10.30;99.90;;;;;;5075702;28;20465;-76
2022/11/16 05:46:14;;;;;;;20.97;19.07;;;10.30;99.90;;;;;;5075524;28;20456;-76
2022/11/16 05:48:43;;;;;;;20.70;18.70;;;10.30;99.90;;;;;;5075619;28;20452;-76
2022/11/16 05:51:12;;;;;;;21.60;19.40;;;10.30;99.90;;;;;;5075564;28;20479;-76
2022/11/16 05:53:41;;;;;;;21.10;19.10;;;10.30;99.90;;;;;;5075249;28;20500;-76
2022/11/16 05:56:13;;;;;;;22.97;20.83;;;10.20;99.90;;;;;;5076220;28;20502;-76
2022/11/16 05:58:42;;;;;;;21.63;19.60;;;10.20;99.90;;;;;;5075427;28;20433;-76
2022/11/16 06:01:10;;;;;;;23.63;21.27;;;10.20;99.90;;;;;;5076807;28;20449;-75
2022/11/16 06:03:38;;;;;;;22.43;20.37;;;10.20;99.90;;;;;;5083312;28;20534;-76
2022/11/16 06:06:07;;;;;;;22.67;20.67;;;10.20;99.90;;;;;;5083935;28;20445;-76
2022/11/16 06:08:36;;;;;;;23.00;20.80;;;10.20;99.90;;;;;;5084319;28;20560;-76
2022/11/16 06:11:10;;;;;;;24.10;21.50;;;10.20;99.90;;;;;;5085520;28;20444;-75
2022/11/16 06:13:40;;;;;;;22.87;20.60;;;10.10;99.90;;;;;;5082335;28;20469;-76
2022/11/16 06:16:09;;;;;;;24.13;21.80;;;10.10;99.90;;;;;;5082845;28;20508;-76
2022/11/16 06:18:39;;;;;;;23.50;21.20;;;10.10;99.90;;;;;;5085551;28;20469;-77
2022/11/16 06:21:09;;;;;;;24.63;22.27;;;10.10;99.90;;;;;;5077780;28;20445;-76
2022/11/16 06:23:37;;;;;;;25.17;22.70;;;10.10;99.90;;;;;;5077846;28;20898;-76
2022/11/16 06:26:06;;;;;;;25.17;22.60;;;10.10;99.90;;;;;;5075582;28;20448;-76
2022/11/16 06:28:36;;;;;;;25.67;23.27;;;10.10;99.90;;;;;;5076532;28;20854;-77
2022/11/16 06:31:06;;;;;;;25.43;22.73;;;10.10;99.90;;;;;;5075244;28;20531;-76
2022/11/16 06:33:39;;;;;;;28.03;25.03;;;10.10;99.90;;;;;;5074795;28;20511;-76
2022/11/16 06:36:15;;;;;;;29.73;26.93;;;10.00;99.90;;;;;;5075226;28;20440;-76
2022/11/16 06:38:44;;;;;;;26.90;24.37;;;10.00;99.90;;;;;;5074451;28;20453;-76
2022/11/16 06:41:13;;;;;;;25.87;23.50;;;10.00;99.90;;;;;;5074522;28;20451;-76
2022/11/16 06:43:45;;;;;;;26.90;24.30;;;10.00;99.90;;;;;;5074350;28;20469;-77
2022/11/16 06:46:17;;;;;;;28.43;25.97;;;10.00;99.90;;;;;;5074748;28;20962;-76
2022/11/16 06:48:45;;;;;;;28.63;25.90;;;10.00;99.90;;;;;;5074267;28;20450;-77
2022/11/16 06:51:14;;;;;;;28.70;26.00;;;10.00;99.90;;;;;;5074406;28;20465;-76
2022/11/16 06:53:43;;;;;;;27.83;25.33;;;10.00;99.90;;;;;;5074341;28;20473;-76
2022/11/16 06:56:13;;;;;;;29.53;26.73;;;10.00;99.90;;;;;;5074372;28;20942;-76
2022/11/16 06:58:47;;;;;;;30.20;27.30;;;10.00;99.90;;;;;;5074589;28;20452;-76
2022/11/16 07:01:22;;;;;;;30.97;28.07;;;10.00;99.90;;;;;;5075499;28;20421;-76
2022/11/16 07:03:54;;;;;;;29.97;27.07;;;9.90;99.90;;;;;;5074296;28;20500;-76
2022/11/16 07:06:22;;;;;;;30.00;26.90;;;9.90;99.90;;;;;;5074338;28;20514;-76
2022/11/16 07:08:50;;;;;;;30.57;27.77;;;9.90;99.90;;;;;;5074346;28;20822;-76
2022/11/16 07:11:24;;;;;;;31.20;28.20;;;9.90;99.90;;;;;;5073949;28;20434;-76
2022/11/16 07:13:52;;;;;;;31.83;28.53;;;9.90;99.90;;;;;;5074073;28;20939;-76
2022/11/16 07:16:22;;;;;;;30.50;27.30;;;9.90;99.90;;;;;;5073869;28;20452;-76
2022/11/16 07:18:57;;;;;;;30.40;27.40;;;9.90;99.90;;;;;;5074597;28;20441;-75
2022/11/16 07:21:28;;;;;;;30.53;27.63;;;9.90;99.90;;;;;;5073955;28;20825;-75
2022/11/16 07:23:59;;;;;;;31.23;28.30;;;9.90;99.90;;;;;;5073695;28;20469;-75
2022/11/16 07:26:27;;;;;;;32.77;29.47;;;9.80;99.90;;;;;;5073561;28;20857;-75
2022/11/16 07:29:04;;;;;;;33.63;30.23;;;9.80;99.90;;;;;;5073603;28;20449;-75
2022/11/16 07:31:35;;;;;;;32.77;29.60;;;9.80;99.90;;;;;;5073994;28;20481;-75
2022/11/16 07:34:26;;;;;;;32.67;29.50;;;9.80;99.90;;;;;;5074473;28;20818;-75
2022/11/16 07:37:07;;;;;;;32.43;29.43;;;9.80;99.90;;;;;;5074279;28;20437;-75
2022/11/16 07:39:35;;;;;;;34.87;31.57;;;9.80;99.90;;;;;;5073395;28;20449;-75
2022/11/16 07:42:10;;;;;;;34.90;31.60;;;9.80;99.90;;;;;;5073240;28;20437;-74
2022/11/16 07:44:56;;;;;;;37.07;33.13;;;9.80;99.90;;;;;;5074871;28;21047;-74
2022/11/16 07:47:26;;;;;;;33.17;29.97;;;9.80;99.90;;;;;;5073985;28;20856;-74
2022/11/16 07:49:55;;;;;;;41.40;37.00;;;9.70;99.90;;;;;;5073004;28;20502;-74
2022/11/16 07:52:26;;;;;;;33.47;30.27;;;9.70;99.90;;;;;;5073073;28;20465;-74
2022/11/16 07:54:57;;;;;;;33.83;30.50;;;9.70;99.90;;;;;;5073144;28;20458;-75
2022/11/16 07:57:27;;;;;;;32.87;29.57;;;9.70;99.90;;;;;;5073077;28;20499;-76
2022/11/16 07:59:59;;;;;;;35.47;31.77;;;9.70;99.90;;;;;;5074498;28;20430;-76
2022/11/16 08:02:30;;;;;;;34.40;31.00;;;9.70;99.90;;;;;;5073998;28;20446;-75
2022/11/16 08:04:59;;;;;;;35.23;31.70;;;9.70;99.90;;;;;;5073299;28;20448;-75
2022/11/16 08:07:29;;;;;;;35.27;31.57;;;9.70;99.90;;;;;;5072810;28;20445;-76
2022/11/16 08:09:57;;;;;;;35.93;31.67;;;9.60;99.90;;;;;;5072816;28;20449;-75
2022/11/16 08:12:25;;;;;;;33.23;29.93;;;9.60;99.90;;;;;;5072773;28;20465;-75
2022/11/16 08:14:55;;;;;;;34.93;31.63;;;9.60;99.90;;;;;;5072584;28;21051;-75
2022/11/16 08:17:23;;;;;;;34.67;31.37;;;9.60;99.90;;;;;;5072901;28;20441;-75
2022/11/16 08:19:54;;;;;;;39.43;35.60;;;9.60;99.90;;;;;;5072876;28;20453;-76
2022/11/16 08:22:22;;;;;;;37.00;33.30;;;9.60;99.90;;;;;;5072239;28;21057;-74
2022/11/16 08:24:50;;;;;;;34.87;31.43;;;9.60;99.90;;;;;;5072604;28;20484;-76
2022/11/16 08:27:19;;;;;;;37.37;33.73;;;9.60;99.90;;;;;;5072494;28;20544;-76
2022/11/16 08:29:51;;;;;;;37.77;34.03;;;9.60;99.90;;;;;;5072435;28;20950;-75
2022/11/16 08:32:19;;;;;;;36.33;32.93;;;9.60;99.90;;;;;;5072683;28;20869;-76
2022/11/16 08:34:47;;;;;;;35.27;31.87;;;9.60;99.90;;;;;;5072312;28;20571;-75
2022/11/16 08:37:17;;;;;;;38.40;34.60;;;9.60;99.90;;;;;;5072342;28;20541;-75
2022/11/16 08:39:47;;;;;;;40.57;36.67;;;9.50;99.90;;;;;;5073581;28;20449;-76
2022/11/16 08:42:15;;;;;;;36.40;32.80;;;9.50;99.90;;;;;;5072409;28;20531;-76
2022/11/16 08:44:47;;;;;;;39.77;35.77;;;9.50;99.90;;;;;;5072440;28;20517;-76
2022/11/16 08:47:19;;;;;;;37.17;33.47;;;9.50;99.90;;;;;;5072295;28;20472;-76
2022/11/16 08:49:51;;;;;;;34.30;31.00;;;9.50;99.90;;;;;;5072538;28;20445;-76
2022/11/16 08:52:22;;;;;;;33.83;30.53;;;9.50;99.90;;;;;;5072883;28;20461;-76
2022/11/16 08:54:53;;;;;;;34.27;31.07;;;9.50;99.90;;;;;;5072184;28;20493;-76
2022/11/16 08:57:21;;;;;;;33.30;30.20;;;9.50;99.90;;;;;;5076050;28;20488;-76
2022/11/16 08:59:55;;;;;;;32.70;29.60;;;9.50;99.90;;;;;;5074464;28;20453;-76
2022/11/16 09:02:24;;;;;;;33.33;30.20;;;9.50;99.90;;;;;;5072987;28;20982;-76
2022/11/16 09:04:52;;;;;;;35.70;32.30;;;9.50;99.90;;;;;;5073979;28;20480;-76
2022/11/16 09:07:22;;;;;;;33.93;30.60;;;9.50;99.90;;;;;;5073403;28;20926;-76
2022/11/16 09:09:50;;;;;;;33.43;30.23;;;9.50;99.90;;;;;;5072086;28;20445;-76
2022/11/16 09:12:18;;;;;;;36.30;32.67;;;9.50;99.90;;;;;;5071840;28;20464;-76
2022/11/16 09:14:47;;;;;;;34.77;31.50;;;9.40;99.90;;;;;;5071933;28;21058;-76
2022/11/16 09:17:15;;;;;;;35.73;32.20;;;9.50;99.90;;;;;;5071817;28;20910;-76
2022/11/16 09:19:50;;;;;;;32.90;29.77;;;9.40;99.90;;;;;;5072051;28;20494;-76
2022/11/16 09:22:18;;;;;;;34.30;31.07;;;9.50;99.90;;;;;;5073208;28;20480;-76
2022/11/16 09:24:47;;;;;;;34.30;31.00;;;9.50;99.90;;;;;;5071951;28;20445;-76
2022/11/16 09:27:15;;;;;;;33.67;30.57;;;9.40;99.90;;;;;;5071881;28;20453;-76
2022/11/16 09:29:43;;;;;;;33.57;30.30;;;9.50;99.90;;;;;;5073126;28;20437;-76
2022/11/16 09:32:11;;;;;;;32.10;28.93;;;9.40;99.90;;;;;;5071924;28;20476;-76
2022/11/16 09:34:39;;;;;;;33.30;30.07;;;9.40;99.90;;;;;;5072972;28;20559;-77
2022/11/16 09:37:08;;;;;;;34.50;31.30;;;9.40;99.90;;;;;;5072945;28;21003;-76
2022/11/16 09:39:36;;;;;;;33.60;30.37;;;9.50;99.90;;;;;;5073227;28;20475;-76
2022/11/16 09:42:21;;;;;;;32.43;29.47;;;9.50;99.90;;;;;;5072969;28;20503;-76
2022/11/16 09:44:59;;;;;;;33.50;30.30;;;9.40;99.90;;;;;;5071744;28;20437;-77
2022/11/16 09:47:39;;;;;;;41.10;37.13;;;9.40;99.90;;;;;;5072964;28;20461;-77
2022/11/16 09:50:15;;;;;;;36.63;32.93;;;9.40;99.90;;;;;;5072183;28;20455;-77
2022/11/16 09:52:46;;;;;;;33.60;30.43;;;9.40;99.90;;;;;;5072822;28;20460;-77
2022/11/16 09:55:24;;;;;;;32.97;29.90;;;9.40;99.90;;;;;;5071618;28;20469;-77
2022/11/16 09:57:57;;;;;;;34.40;31.30;;;9.40;99.90;;;;;;5073426;28;20777;-77
2022/11/16 10:00:25;;;;;;;33.77;30.70;;;9.40;99.90;;;;;;5076865;28;20508;-77
2022/11/16 10:03:02;;;;;;;34.80;31.40;;;9.40;99.90;;;;;;5076483;28;20543;-77
2022/11/16 10:05:36;;;;;;;32.57;29.67;;;9.40;99.90;;;;;;5075465;28;20447;-77
2022/11/16 10:08:12;;;;;;;40.37;36.57;;;9.40;99.90;;;;;;5075176;28;20447;-76
2022/11/16 10:10:49;;;;;;;37.67;34.17;;;9.40;99.90;;;;;;5076652;28;20444;-77
2022/11/16 10:13:31;;;;;;;34.93;31.70;;;9.40;99.90;;;;;;5074987;28;20540;-76
2022/11/16 10:16:08;;;;;;;34.30;31.20;;;9.40;99.90;;;;;;5074870;28;20461;-76
2022/11/16 10:18:48;;;;;;;36.80;33.50;;;9.40;99.90;;;;;;5074955;28;20436;-76
2022/11/16 10:21:31;;;;;;;34.57;31.40;;;9.40;99.90;;;;;;5074871;28;20499;-76
2022/11/16 10:24:25;;;;;;;33.00;30.10;;;9.30;99.90;;;;;;5076149;28;20459;-76
2022/11/16 10:27:04;;;;;;;33.77;30.67;;;9.30;99.90;;;;;;5075075;28;20483;-77
2022/11/16 10:29:56;;;;;;;34.13;30.90;;;9.30;99.90;;;;;;5074783;28;20881;-77
2022/11/16 10:32:28;;;;;;;33.47;30.40;;;9.30;99.90;;;;;;5076019;28;20461;-76
2022/11/16 10:35:01;;;;;;;33.43;30.30;;;9.30;99.90;;;;;;5076441;28;20460;-76
2022/11/16 10:37:31;;;;;;;37.40;33.87;;;9.20;99.90;;;;;;5074558;28;20437;-77
2022/11/16 10:40:02;;;;;;;41.90;37.90;;;9.20;99.90;;;;;;5074519;28;20461;-76
2022/11/16 10:42:34;;;;;;;35.17;32.07;;;9.20;99.90;;;;;;5074329;28;21000;-76
2022/11/16 10:45:17;;;;;;;33.27;30.33;;;9.30;99.90;;;;;;5074671;28;20777;-77
2022/11/16 10:47:51;;;;;;;33.83;30.73;;;9.30;99.90;;;;;;5075935;28;20417;-76
2022/11/16 10:50:31;;;;;;;33.27;30.37;;;9.20;99.90;;;;;;5076363;28;20431;-76
2022/11/16 10:53:00;;;;;;;33.40;30.50;;;9.30;99.90;;;;;;5075823;28;20457;-76
2022/11/16 10:55:28;;;;;;;33.47;30.43;;;9.20;99.90;;;;;;5075420;28;20987;-77
2022/11/16 10:57:59;;;;;;;38.70;35.10;;;9.20;99.90;;;;;;5074484;28;20468;-76
2022/11/16 11:00:43;;;;;;;40.10;36.30;;;9.20;99.90;;;;;;5074435;28;20965;-76
2022/11/16 11:03:12;;;;;;;34.83;31.63;;;9.20;99.90;;;;;;5076396;28;20452;-76
2022/11/16 11:05:50;;;;;;;34.50;31.30;;;9.20;99.90;;;;;;5077107;28;20429;-76
2022/11/16 11:08:26;;;;;;;33.80;30.73;;;9.20;99.90;;;;;;5081853;28;20448;-76
2022/11/16 11:11:02;;;;;;;34.50;31.20;;;9.20;99.90;;;;;;5082582;28;20444;-76
2022/11/16 11:13:33;;;;;;;33.50;30.43;;;9.20;99.90;;;;;;5078870;28;20522;-76
2022/11/16 11:16:17;;;;;;;35.20;31.97;;;9.20;99.90;;;;;;5082045;28;20843;-76
2022/11/16 11:18:45;;;;;;;35.73;32.43;;;9.20;99.90;;;;;;5076975;28;20436;-76
2022/11/16 11:21:18;;;;;;;34.77;31.60;;;9.20;99.90;;;;;;5075016;28;20449;-76
2022/11/16 11:23:49;;;;;;;34.50;31.40;;;9.10;99.90;;;;;;5075175;28;20522;-76
2022/11/16 11:26:40;;;;;;;34.23;31.20;;;9.10;99.90;;;;;;5075315;28;20491;-76
2022/11/16 11:29:23;;;;;;;34.40;31.20;;;9.10;99.90;;;;;;5071503;28;20858;-77
2022/11/16 11:31:57;;;;;;;35.03;31.77;;;9.10;99.90;;;;;;5073622;28;20451;-76
2022/11/16 11:34:29;;;;;;;33.50;30.30;;;9.10;99.90;;;;;;5073914;28;20453;-76
2022/11/16 11:37:00;;;;;;;34.67;31.57;;;9.10;99.90;;;;;;5073378;28;20473;-76
2022/11/16 11:39:31;;;;;;;32.67;29.77;;;9.10;99.90;;;;;;5074871;28;20417;-76
2022/11/16 11:42:05;;;;;;;36.63;33.17;;;9.10;99.90;;;;;;5074881;28;20524;-76
2022/11/16 11:44:42;;;;;;;32.17;29.30;;;9.10;99.90;;;;;;5075014;28;20421;-76
2022/11/16 11:47:26;;;;;;;33.97;30.77;;;9.10;99.90;;;;;;5074835;28;20418;-76
2022/11/16 11:50:19;;;;;;;34.60;31.60;;;9.10;99.90;;;;;;5073512;28;20452;-76
2022/11/16 11:53:02;;;;;;;35.40;32.27;;;9.00;99.90;;;;;;5073278;28;20469;-76
2022/11/16 11:55:30;;;;;;;33.37;30.30;;;9.00;99.90;;;;;;5073286;28;20440;-76
2022/11/16 11:58:00;;;;;;;33.17;30.20;;;9.00;99.90;;;;;;5073279;28;20544;-76
2022/11/16 12:00:36;;;;;;;33.73;30.63;;;9.00;99.90;;;;;;5074090;28;20463;-77
2022/11/16 12:03:52;;;;;;;33.77;30.47;;;9.00;99.90;;;;;;5080450;28;20484;-77
2022/11/16 12:06:29;;;;;;;34.77;31.77;;;9.00;99.90;;;;;;5075572;28;20442;-76
2022/11/16 12:09:19;;;;;;;33.77;30.77;;;9.00;99.90;;;;;;5075097;28;20445;-76
2022/11/16 12:12:04;;;;;;;34.30;31.20;;;9.00;99.90;;;;;;5076590;28;20832;-76
2022/11/16 12:14:49;;;;;;;35.37;32.40;;;9.00;99.90;;;;;;5074486;28;20413;-76
2022/11/16 12:17:25;;;;;;;32.70;29.80;;;9.00;99.90;;;;;;5073392;28;20465;-76
2022/11/16 12:20:24;;;;;;;32.03;29.20;;;9.00;99.90;;;;;;5073293;28;20449;-76
2022/11/16 12:23:28;;;;;;;43.27;39.17;;;9.00;99.90;;;;;;5073515;28;20511;-76
2022/11/16 12:26:07;;;;;;;33.53;30.33;;;9.00;99.90;;;;;;5064932;28;20449;-76
2022/11/16 12:28:47;;;;;;;32.23;29.23;;;9.10;99.90;;;;;;5072799;28;20430;-76
2022/11/16 12:31:43;;;;;;;33.60;30.60;;;9.10;99.90;;;;;;5074282;28;20478;-76
2022/11/16 12:34:19;;;;;;;31.83;28.90;;;9.00;99.90;;;;;;5072766;28;20469;-76
2022/11/16 12:36:56;;;;;;;31.20;28.50;;;9.00;99.90;;;;;;5072403;28;20492;-76
2022/11/16 12:39:30;;;;;;;31.07;28.30;;;9.10;99.90;;;;;;5073912;28;20436;-76
2022/11/16 12:42:38;;;;;;;32.00;29.20;;;9.10;99.90;;;;;;5074556;28;20445;-76
2022/11/16 12:45:27;;;;;;;32.53;29.47;;;9.10;99.90;;;;;;5044488;28;20457;-76
2022/11/16 12:48:20;;;;;;;31.53;28.73;;;9.10;99.90;;;;;;5072697;28;20448;-77
2022/11/16 12:50:54;;;;;;;32.50;29.60;;;9.10;99.90;;;;;;5072315;28;20532;-76
2022/11/16 12:53:46;;;;;;;32.27;29.30;;;9.10;99.90;;;;;;5072121;28;20457;-77
2022/11/16 12:56:24;;;;;;;33.03;29.97;;;9.10;99.90;;;;;;5072045;28;20465;-77
2022/11/16 12:59:19;;;;;;;31.90;29.10;;;9.10;99.90;;;;;;5072425;28;20444;-76
2022/11/16 13:01:56;;;;;;;31.43;28.53;;;9.10;99.90;;;;;;5072015;28;20444;-77
2022/11/16 13:04:33;;;;;;;30.30;27.60;;;9.10;99.90;;;;;;5072072;28;20449;-77
2022/11/16 13:07:06;;;;;;;36.03;32.63;;;9.10;99.90;;;;;;5073266;28;20828;-77
2022/11/16 13:09:41;;;;;;;31.73;28.77;;;9.10;99.90;;;;;;5071999;28;20903;-77
2022/11/16 13:12:15;;;;;;;29.20;26.60;;;9.10;99.90;;;;;;5071902;28;20552;-77
2022/11/16 13:14:48;;;;;;;30.40;27.60;;;9.10;99.90;;;;;;5073444;28;20428;-77
2022/11/16 13:17:20;;;;;;;30.07;27.37;;;9.10;99.90;;;;;;5071832;28;20530;-77
2022/11/16 13:20:14;;;;;;;28.40;25.80;;;9.10;99.90;;;;;;5072058;28;20438;-77
2022/11/16 13:22:50;;;;;;;29.10;26.50;;;9.10;99.90;;;;;;5073104;28;20530;-77
2022/11/16 13:25:24;;;;;;;28.27;25.67;;;9.00;99.90;;;;;;5073512;28;20891;-77
2022/11/16 13:27:57;;;;;;;27.00;24.60;;;9.10;99.90;;;;;;5073383;28;20424;-77
2022/11/16 13:30:33;;;;;;;25.20;22.77;;;9.00;99.90;;;;;;5073208;28;20418;-77
2022/11/16 13:33:19;;;;;;;25.07;22.77;;;9.00;99.90;;;;;;5072322;28;20838;-76
2022/11/16 13:35:48;;;;;;;26.07;23.60;;;9.00;99.90;;;;;;5077416;28;20824;-77
2022/11/16 13:38:52;;;;;;;25.50;23.20;;;9.00;99.90;;;;;;5075726;28;20519;-77
2022/11/16 13:41:27;;;;;;;26.30;23.83;;;9.00;99.90;;;;;;5075632;28;20820;-77
2022/11/16 13:43:55;;;;;;;22.07;20.03;;;9.00;99.90;;;;;;5075629;28;20468;-77
2022/11/16 13:46:37;;;;;;;25.10;22.80;;;9.00;99.90;;;;;;5075539;28;20536;-77
2022/11/16 13:49:30;;;;;;;22.77;20.77;;;9.00;99.90;;;;;;5077149;28;20826;-77
2022/11/16 13:52:02;;;;;;;23.57;21.37;;;9.00;99.90;;;;;;5076651;28;20448;-77